Time;durP1;ratioP1;P1;durP2;ratioP2;P2;SDS_P1;SDS_P2;PMS_P1;PMS_P2;Temp;Humidity;BMP_temperature;BMP_pressure;BME280_temperature;BME280_humidity;BME280_pressure;Samples;Min_cycle;Max_cycle;Signal;HPM_P1;HPM_P2
2022/10/27 00:01:56;;;;;;;5.50;2.80;;;14.90;99.90;;;;;;5072312;28;20036;-76
2022/10/27 00:04:22;;;;;;;7.82;2.90;;;14.90;99.90;;;;;;5056899;28;20068;-77
2022/10/27 00:06:48;;;;;;;6.47;2.90;;;14.90;99.90;;;;;;5056635;28;20463;-76
2022/10/27 00:09:13;;;;;;;5.22;3.05;;;14.80;99.90;;;;;;5055738;28;20033;-77
2022/10/27 00:11:39;;;;;;;8.05;2.65;;;14.80;99.90;;;;;;5056994;28;20024;-77
2022/10/27 00:14:05;;;;;;;10.63;3.03;;;14.80;99.90;;;;;;5071817;28;20048;-76
2022/10/27 00:16:30;;;;;;;6.75;2.85;;;14.90;99.90;;;;;;5056454;28;20029;-76
2022/10/27 00:18:56;;;;;;;7.78;3.38;;;14.80;99.90;;;;;;5056482;28;20067;-77
2022/10/27 00:21:22;;;;;;;6.10;2.70;;;14.80;99.90;;;;;;5056594;28;20424;-76
2022/10/27 00:23:49;;;;;;;7.10;2.88;;;14.80;99.90;;;;;;5072594;28;20056;-76
2022/10/27 00:26:17;;;;;;;6.95;2.88;;;14.80;99.90;;;;;;5056555;28;20028;-76
2022/10/27 00:28:44;;;;;;;8.50;2.88;;;14.80;99.90;;;;;;5071912;28;20041;-76
2022/10/27 00:31:19;;;;;;;11.05;3.33;;;14.80;99.90;;;;;;5056328;28;20090;-77
2022/10/27 00:33:47;;;;;;;4.53;2.35;;;14.80;99.90;;;;;;5072079;28;20044;-77
2022/10/27 00:36:18;;;;;;;10.05;3.95;;;14.80;99.90;;;;;;5056537;28;20364;-77
2022/10/27 00:38:44;;;;;;;6.35;2.70;;;14.90;99.90;;;;;;5072886;28;20045;-77
2022/10/27 00:41:27;;;;;;;5.10;2.42;;;14.90;99.90;;;;;;5056562;28;20060;-77
2022/10/27 00:43:53;;;;;;;5.15;2.67;;;14.90;99.90;;;;;;5071999;28;20033;-78
2022/10/27 00:46:44;;;;;;;6.78;3.22;;;14.90;99.90;;;;;;5053345;28;20029;-79
2022/10/27 00:49:17;;;;;;;8.10;2.70;;;14.90;99.90;;;;;;5052798;28;20120;-77
2022/10/27 00:51:47;;;;;;;7.05;2.83;;;14.90;99.90;;;;;;5053082;28;20040;-77
2022/10/27 00:54:14;;;;;;;3.88;2.40;;;14.90;99.90;;;;;;5053042;28;20479;-77
2022/10/27 00:56:41;;;;;;;5.00;2.55;;;14.80;99.90;;;;;;5068966;28;20370;-77
2022/10/27 00:59:07;;;;;;;3.83;2.50;;;14.90;99.90;;;;;;5052941;28;20091;-77
2022/10/27 01:01:35;;;;;;;4.53;2.80;;;14.90;99.90;;;;;;5052981;28;20037;-79
2022/10/27 01:04:01;;;;;;;8.15;2.60;;;14.80;99.90;;;;;;5052695;28;20104;-78
2022/10/27 01:06:27;;;;;;;9.13;2.47;;;14.80;99.90;;;;;;5053104;28;20033;-76
2022/10/27 01:08:53;;;;;;;5.43;2.70;;;14.80;99.90;;;;;;5052772;28;20032;-76
2022/10/27 01:11:19;;;;;;;7.70;2.67;;;14.80;99.90;;;;;;5053418;28;20021;-76
2022/10/27 01:13:45;;;;;;;9.70;2.78;;;14.80;99.90;;;;;;5052626;28;20045;-77
2022/10/27 01:16:37;;;;;;;9.27;2.65;;;14.80;99.90;;;;;;5052904;28;20044;-77
2022/10/27 01:19:40;;;;;;;5.43;2.67;;;14.80;99.90;;;;;;5042849;28;20266;-78
2022/10/27 01:22:17;;;;;;;6.30;2.70;;;14.80;99.90;;;;;;5052710;28;20045;-77
2022/10/27 01:24:50;;;;;;;6.13;2.45;;;14.70;99.90;;;;;;5068157;28;20366;-78
2022/10/27 01:27:49;;;;;;;7.32;2.40;;;14.80;99.90;;;;;;5052470;28;20450;-77
2022/10/27 01:30:22;;;;;;;7.22;2.67;;;14.70;99.90;;;;;;5052289;28;20198;-78
2022/10/27 01:33:00;;;;;;;10.68;2.70;;;14.70;99.90;;;;;;5052866;28;20060;-77
2022/10/27 01:35:49;;;;;;;8.13;2.30;;;14.80;99.90;;;;;;5057274;28;20041;-76
2022/10/27 01:38:28;;;;;;;5.60;2.88;;;14.80;99.90;;;;;;5072716;28;20094;-76
2022/10/27 01:41:11;;;;;;;6.95;2.42;;;14.80;99.90;;;;;;5072262;28;20029;-77
2022/10/27 01:43:37;;;;;;;7.70;2.40;;;14.80;99.90;;;;;;5072176;28;20036;-78
2022/10/27 01:46:06;;;;;;;6.60;2.88;;;14.80;99.90;;;;;;5072440;28;20474;-77
2022/10/27 01:48:34;;;;;;;8.23;2.55;;;14.80;99.90;;;;;;5072055;28;20040;-78
2022/10/27 01:51:00;;;;;;;9.88;2.47;;;14.80;99.90;;;;;;5072472;28;20025;-77
2022/10/27 01:53:27;;;;;;;3.58;2.20;;;14.80;99.90;;;;;;5072849;28;20116;-76
2022/10/27 01:56:05;;;;;;;5.03;2.30;;;14.80;99.90;;;;;;5072268;28;20028;-77
2022/10/27 01:58:37;;;;;;;5.13;2.08;;;14.80;99.90;;;;;;5071709;28;20099;-77
2022/10/27 02:01:14;;;;;;;7.20;2.30;;;14.80;99.90;;;;;;5072154;28;20391;-78
2022/10/27 02:04:10;;;;;;;8.75;2.20;;;14.80;99.90;;;;;;5071824;28;20116;-78
2022/10/27 02:06:35;;;;;;;7.20;2.40;;;14.70;99.90;;;;;;5071812;28;20033;-77
2022/10/27 02:09:27;;;;;;;5.88;2.15;;;14.70;99.90;;;;;;5072092;28;20451;-77
2022/10/27 02:11:54;;;;;;;4.53;2.30;;;14.70;99.90;;;;;;5071462;28;20314;-75
2022/10/27 02:14:21;;;;;;;5.32;2.33;;;14.70;99.90;;;;;;5071717;28;20049;-77
2022/10/27 02:16:52;;;;;;;4.00;2.10;;;14.60;99.90;;;;;;5071479;28;20032;-77
2022/10/27 02:19:19;;;;;;;8.23;2.60;;;14.60;99.90;;;;;;5071488;28;20390;-76
2022/10/27 02:21:48;;;;;;;5.40;2.13;;;14.60;99.90;;;;;;5071626;28;20033;-76
2022/10/27 02:24:14;;;;;;;3.80;2.28;;;14.60;99.90;;;;;;5071426;28;20309;-76
2022/10/27 02:26:51;;;;;;;9.15;2.38;;;14.50;99.90;;;;;;5070572;28;20029;-78
2022/10/27 02:29:33;;;;;;;11.18;2.20;;;14.50;99.90;;;;;;5071159;28;20093;-77
2022/10/27 02:32:02;;;;;;;3.72;2.20;;;14.60;99.90;;;;;;5070985;28;20099;-77
2022/10/27 02:34:30;;;;;;;4.70;2.40;;;14.50;99.90;;;;;;5071257;28;20054;-77
2022/10/27 02:36:56;;;;;;;5.53;2.55;;;14.50;99.90;;;;;;5071240;28;20056;-76
2022/10/27 02:39:22;;;;;;;6.90;2.92;;;14.50;99.90;;;;;;5071141;28;20029;-77
2022/10/27 02:41:48;;;;;;;7.72;2.50;;;14.50;99.90;;;;;;5071573;28;20020;-77
2022/10/27 02:44:14;;;;;;;9.20;2.30;;;14.40;99.90;;;;;;5071121;28;20024;-78
2022/10/27 02:46:39;;;;;;;4.75;2.20;;;14.30;99.90;;;;;;5070895;28;20474;-77
2022/10/27 02:49:05;;;;;;;6.40;2.53;;;14.30;99.90;;;;;;5070960;28;20032;-78
2022/10/27 02:51:31;;;;;;;3.70;2.22;;;14.20;99.90;;;;;;5069844;28;20032;-77
2022/10/27 02:53:56;;;;;;;10.02;2.30;;;14.20;99.90;;;;;;5070863;28;20122;-77
2022/10/27 02:56:22;;;;;;;8.40;2.42;;;14.20;99.90;;;;;;5071298;28;20016;-77
2022/10/27 02:58:48;;;;;;;6.45;2.08;;;14.20;99.90;;;;;;5070614;28;20439;-78
2022/10/27 03:01:13;;;;;;;3.63;1.80;;;14.20;99.90;;;;;;5070733;28;20378;-78
2022/10/27 03:03:39;;;;;;;5.55;2.05;;;14.20;99.90;;;;;;5069760;28;20098;-77
2022/10/27 03:06:05;;;;;;;10.07;2.08;;;14.20;99.90;;;;;;5070823;28;20048;-79
2022/10/27 03:08:30;;;;;;;5.28;2.38;;;14.20;99.90;;;;;;5071189;28;20035;-79
2022/10/27 03:10:56;;;;;;;4.60;2.10;;;14.20;99.90;;;;;;5070360;28;20098;-77
2022/10/27 03:13:21;;;;;;;5.68;1.83;;;14.30;99.90;;;;;;5070619;28;20363;-77
2022/10/27 03:15:47;;;;;;;6.07;1.88;;;14.30;99.90;;;;;;5070541;28;20478;-77
2022/10/27 03:18:13;;;;;;;7.20;3.05;;;14.30;99.90;;;;;;5070605;28;20028;-76
2022/10/27 03:20:38;;;;;;;6.40;2.22;;;14.30;99.90;;;;;;5069877;28;20389;-77
2022/10/27 03:23:04;;;;;;;8.50;2.50;;;14.30;99.90;;;;;;5070784;28;20033;-76
2022/10/27 03:25:30;;;;;;;2.78;2.17;;;14.30;99.90;;;;;;5070573;28;20390;-76
2022/10/27 03:27:56;;;;;;;7.55;2.00;;;14.30;99.90;;;;;;5069239;28;20086;-76
2022/10/27 03:30:21;;;;;;;6.55;2.10;;;14.30;99.90;;;;;;5070292;28;20131;-78
2022/10/27 03:32:50;;;;;;;3.88;2.20;;;14.30;99.90;;;;;;5070607;28;20036;-78
2022/10/27 03:35:18;;;;;;;8.40;2.70;;;14.30;99.90;;;;;;5070874;28;20109;-77
2022/10/27 03:37:44;;;;;;;9.95;2.40;;;14.30;99.90;;;;;;5070435;28;20047;-78
2022/10/27 03:40:10;;;;;;;6.40;2.17;;;14.30;99.90;;;;;;5069567;28;20032;-77
2022/10/27 03:42:41;;;;;;;4.47;2.25;;;14.40;99.90;;;;;;5070285;28;20039;-77
2022/10/27 03:45:10;;;;;;;3.72;2.05;;;14.30;99.90;;;;;;5070199;28;20020;-77
2022/10/27 03:47:36;;;;;;;6.50;2.15;;;14.30;99.90;;;;;;5070995;28;20051;-78
2022/10/27 03:50:02;;;;;;;6.20;2.10;;;14.30;99.90;;;;;;5070532;28;20350;-78
2022/10/27 03:52:28;;;;;;;7.90;2.17;;;14.30;99.90;;;;;;5070637;28;20068;-78
2022/10/27 03:54:54;;;;;;;11.60;2.20;;;14.40;99.90;;;;;;5070489;28;20100;-76
2022/10/27 03:57:19;;;;;;;7.72;2.10;;;14.40;99.90;;;;;;5070496;28;20024;-76
2022/10/27 03:59:45;;;;;;;13.90;2.05;;;14.30;99.90;;;;;;5070690;28;20029;-78
2022/10/27 04:02:11;;;;;;;7.65;2.42;;;14.30;99.90;;;;;;5070241;28;20401;-78
2022/10/27 04:04:36;;;;;;;3.47;2.00;;;14.30;99.90;;;;;;5070129;28;20032;-77
2022/10/27 04:07:02;;;;;;;6.07;2.92;;;14.30;99.90;;;;;;5070182;28;20025;-79
2022/10/27 04:09:28;;;;;;;6.38;2.30;;;14.30;99.90;;;;;;5070024;28;20106;-77
2022/10/27 04:11:53;;;;;;;6.07;2.13;;;14.30;99.90;;;;;;5069864;28;20029;-78
2022/10/27 04:14:19;;;;;;;7.00;2.20;;;14.30;99.90;;;;;;5070346;28;20057;-79
2022/10/27 04:16:50;;;;;;;4.13;2.45;;;14.30;99.90;;;;;;5070546;28;20025;-78
2022/10/27 04:19:16;;;;;;;11.48;2.55;;;14.20;99.90;;;;;;5068903;28;20093;-78
2022/10/27 04:21:42;;;;;;;6.22;2.97;;;14.30;99.90;;;;;;5071217;28;20090;-77
2022/10/27 04:24:08;;;;;;;12.10;2.55;;;14.30;99.90;;;;;;5073692;28;20032;-77
2022/10/27 04:26:34;;;;;;;4.07;2.65;;;14.20;99.90;;;;;;5072873;28;20017;-76
2022/10/27 04:28:59;;;;;;;6.40;2.70;;;14.30;99.90;;;;;;5072416;28;20108;-76
2022/10/27 04:31:25;;;;;;;8.18;2.88;;;14.30;99.90;;;;;;5072602;28;20032;-76
2022/10/27 04:33:50;;;;;;;10.43;2.40;;;14.30;99.90;;;;;;5073635;28;20450;-76
2022/10/27 04:36:16;;;;;;;7.10;2.53;;;14.30;99.90;;;;;;5073466;28;20469;-76
2022/10/27 04:38:42;;;;;;;10.38;4.03;;;14.30;99.90;;;;;;5073662;28;20029;-77
2022/10/27 04:41:07;;;;;;;5.90;2.40;;;14.20;99.90;;;;;;5072221;28;20032;-76
2022/10/27 04:43:33;;;;;;;9.10;2.80;;;14.30;99.90;;;;;;5073364;28;20120;-76
2022/10/27 04:45:59;;;;;;;5.90;2.40;;;14.30;99.90;;;;;;5073027;28;20039;-78
2022/10/27 04:48:24;;;;;;;7.20;2.72;;;14.30;99.90;;;;;;5073263;28;20048;-78
2022/10/27 04:50:50;;;;;;;8.35;2.80;;;14.20;99.90;;;;;;5073069;28;20021;-77
2022/10/27 04:53:16;;;;;;;5.70;2.75;;;14.20;99.90;;;;;;5073382;28;20379;-78
2022/10/27 04:55:41;;;;;;;4.97;2.75;;;14.20;99.90;;;;;;5071907;28;20477;-75
2022/10/27 04:58:07;;;;;;;5.75;2.80;;;14.20;99.90;;;;;;5073167;28;20055;-77
2022/10/27 05:00:33;;;;;;;8.50;3.05;;;14.20;99.90;;;;;;5073121;28;20037;-76
2022/10/27 05:02:58;;;;;;;8.32;2.58;;;14.20;99.90;;;;;;5073262;28;20082;-76
2022/10/27 05:05:26;;;;;;;11.88;3.13;;;14.20;99.90;;;;;;5073988;28;20486;-79
2022/10/27 05:07:57;;;;;;;5.50;2.80;;;14.20;99.90;;;;;;5073249;28;20043;-78
2022/10/27 05:10:23;;;;;;;6.55;3.03;;;14.20;99.90;;;;;;5073027;28;20036;-78
2022/10/27 05:12:49;;;;;;;7.97;2.95;;;14.20;99.90;;;;;;5072562;28;20052;-76
2022/10/27 05:15:15;;;;;;;9.25;3.13;;;14.20;99.90;;;;;;5072637;28;20480;-77
2022/10/27 05:17:41;;;;;;;6.07;2.95;;;14.30;99.90;;;;;;5073462;28;20464;-77
2022/10/27 05:20:07;;;;;;;8.95;3.35;;;14.20;99.90;;;;;;5072646;28;20029;-78
2022/10/27 05:22:33;;;;;;;8.23;3.33;;;14.30;99.90;;;;;;5071561;28;20050;-76
2022/10/27 05:25:00;;;;;;;12.48;4.07;;;14.30;99.90;;;;;;5071490;28;20486;-76
2022/10/27 05:27:25;;;;;;;5.55;2.70;;;14.30;99.90;;;;;;5072500;28;20025;-76
2022/10/27 05:29:51;;;;;;;6.82;2.72;;;14.30;99.90;;;;;;5072330;28;20134;-77
2022/10/27 05:32:16;;;;;;;6.65;3.10;;;14.40;99.90;;;;;;5072332;28;20025;-78
2022/10/27 05:34:42;;;;;;;5.45;3.25;;;14.40;99.90;;;;;;5072401;28;20029;-77
2022/10/27 05:37:08;;;;;;;6.03;3.05;;;14.40;99.90;;;;;;5072412;28;20474;-78
2022/10/27 05:39:34;;;;;;;10.70;3.63;;;14.40;99.90;;;;;;5071588;28;20458;-77
2022/10/27 05:41:59;;;;;;;8.88;3.50;;;14.40;99.90;;;;;;5071956;28;20032;-76
2022/10/27 05:44:25;;;;;;;7.78;3.15;;;14.50;99.90;;;;;;5071788;28;20032;-77
2022/10/27 05:46:51;;;;;;;15.27;3.97;;;14.50;99.90;;;;;;5071254;28;20033;-75
2022/10/27 05:49:17;;;;;;;8.82;3.78;;;14.50;99.90;;;;;;5072387;28;20045;-78
2022/10/27 05:51:42;;;;;;;8.02;4.22;;;14.50;99.90;;;;;;5072764;28;20039;-77
2022/10/27 05:54:08;;;;;;;11.55;3.80;;;14.60;99.90;;;;;;5071623;28;20366;-77
2022/10/27 05:56:34;;;;;;;7.70;3.95;;;14.60;99.90;;;;;;5073137;28;20489;-76
2022/10/27 05:58:59;;;;;;;10.20;3.60;;;14.60;99.90;;;;;;5072341;28;20156;-77
2022/10/27 06:01:25;;;;;;;9.70;3.53;;;14.60;99.90;;;;;;5072596;28;20044;-78
2022/10/27 06:03:51;;;;;;;7.90;3.67;;;14.60;99.90;;;;;;5070831;28;20437;-77
2022/10/27 06:06:16;;;;;;;7.45;3.53;;;14.60;99.90;;;;;;5071004;28;20029;-79
2022/10/27 06:08:42;;;;;;;8.50;3.92;;;14.60;99.90;;;;;;5055666;28;20303;-75
2022/10/27 06:11:08;;;;;;;11.40;4.00;;;14.60;99.90;;;;;;5068228;28;20120;-78
2022/10/27 06:13:34;;;;;;;9.25;3.70;;;14.60;99.90;;;;;;5052283;28;20423;-79
2022/10/27 06:15:59;;;;;;;10.13;4.00;;;14.70;99.90;;;;;;5067695;28;20453;-78
2022/10/27 06:18:25;;;;;;;6.90;3.45;;;14.60;99.90;;;;;;5052261;28;20290;-78
2022/10/27 06:20:50;;;;;;;13.98;4.78;;;14.60;99.90;;;;;;5060070;28;20028;-78
2022/10/27 06:23:16;;;;;;;11.48;4.18;;;14.60;99.90;;;;;;5071104;28;20017;-80
2022/10/27 06:25:42;;;;;;;9.88;3.70;;;14.60;99.90;;;;;;5070273;28;20071;-82
2022/10/27 06:28:08;;;;;;;9.52;4.10;;;14.60;99.90;;;;;;5074192;28;20059;-80
2022/10/27 06:30:34;;;;;;;10.48;4.07;;;14.60;99.90;;;;;;5074794;28;20049;-79
2022/10/27 06:32:59;;;;;;;7.40;3.97;;;14.60;99.90;;;;;;5071115;28;20028;-79
2022/10/27 06:35:25;;;;;;;12.95;4.60;;;14.60;99.90;;;;;;5071154;28;20494;-80
2022/10/27 06:37:51;;;;;;;12.10;4.30;;;14.60;99.90;;;;;;5070272;28;20124;-80
2022/10/27 06:40:18;;;;;;;14.25;7.45;;;14.60;99.90;;;;;;5071436;28;20033;-78
2022/10/27 06:42:48;;;;;;;16.10;5.65;;;14.60;99.90;;;;;;5070027;28;20032;-78
2022/10/27 06:45:16;;;;;;;8.75;4.40;;;14.70;99.90;;;;;;5070309;28;20055;-77
2022/10/27 06:47:43;;;;;;;13.70;6.60;;;14.70;99.90;;;;;;5072305;28;20028;-79
2022/10/27 06:50:09;;;;;;;11.65;6.88;;;14.70;99.90;;;;;;5071159;28;20042;-78
2022/10/27 06:52:36;;;;;;;11.75;5.10;;;14.70;99.90;;;;;;5071091;28;20059;-77
2022/10/27 06:55:02;;;;;;;15.00;4.53;;;14.70;99.90;;;;;;5071167;28;20024;-78
2022/10/27 06:57:28;;;;;;;7.30;4.32;;;14.70;99.90;;;;;;5070732;28;20420;-79
2022/10/27 06:59:53;;;;;;;11.32;4.00;;;14.80;99.90;;;;;;5071342;28;20032;-80
2022/10/27 07:02:19;;;;;;;10.52;4.13;;;14.80;99.90;;;;;;5071372;28;20028;-76
2022/10/27 07:04:45;;;;;;;8.50;4.32;;;14.90;99.90;;;;;;5070961;28;20036;-80
2022/10/27 07:07:10;;;;;;;12.75;4.03;;;14.90;99.90;;;;;;5071195;28;20045;-77
2022/10/27 07:09:36;;;;;;;11.57;4.57;;;14.90;99.90;;;;;;5071311;28;20056;-79
2022/10/27 07:12:02;;;;;;;7.18;4.10;;;14.90;99.90;;;;;;5069745;28;20394;-78
2022/10/27 07:14:27;;;;;;;11.63;4.18;;;14.90;99.90;;;;;;5070925;28;20052;-82
2022/10/27 07:16:53;;;;;;;11.82;6.47;;;14.90;99.90;;;;;;5070049;28;20033;-82
2022/10/27 07:19:19;;;;;;;8.15;5.00;;;15.00;99.90;;;;;;5071221;28;20108;-79
2022/10/27 07:21:44;;;;;;;10.77;4.47;;;15.00;99.90;;;;;;5069932;28;20037;-78
2022/10/27 07:24:10;;;;;;;14.15;7.13;;;15.00;99.90;;;;;;5070841;28;20112;-79
2022/10/27 07:26:35;;;;;;;14.48;6.65;;;15.00;99.90;;;;;;5071379;28;20021;-79
2022/10/27 07:29:01;;;;;;;12.15;4.32;;;15.10;99.90;;;;;;5070637;28;20351;-79
2022/10/27 07:31:27;;;;;;;12.70;4.32;;;15.10;99.90;;;;;;5070763;28;20361;-78
2022/10/27 07:33:52;;;;;;;9.70;4.97;;;15.10;99.90;;;;;;5070997;28;20051;-80
2022/10/27 07:36:18;;;;;;;8.55;3.90;;;15.20;99.90;;;;;;5069273;28;20421;-80
2022/10/27 07:38:44;;;;;;;14.70;4.22;;;15.30;99.90;;;;;;5071570;28;20025;-80
2022/10/27 07:41:09;;;;;;;10.25;4.30;;;15.30;99.90;;;;;;5077041;28;20033;-78
2022/10/27 07:43:35;;;;;;;7.82;4.28;;;15.30;99.90;;;;;;5071417;28;20036;-78
2022/10/27 07:46:01;;;;;;;8.65;4.50;;;15.40;99.90;;;;;;5069384;28;20048;-78
2022/10/27 07:48:27;;;;;;;9.68;3.83;;;15.40;99.90;;;;;;5070422;28;20029;-78
2022/10/27 07:50:54;;;;;;;13.13;5.63;;;15.50;99.90;;;;;;5071025;28;20025;-79
2022/10/27 07:53:19;;;;;;;13.93;4.60;;;15.60;99.90;;;;;;5070559;28;20347;-79
2022/10/27 07:55:46;;;;;;;16.08;4.75;;;15.60;99.90;;;;;;5071937;28;20031;-78
2022/10/27 07:58:14;;;;;;;15.35;5.88;;;15.70;99.90;;;;;;5074931;28;20028;-80
2022/10/27 08:00:43;;;;;;;15.88;6.20;;;15.70;99.90;;;;;;5075104;28;20542;-79
2022/10/27 08:03:24;;;;;;;15.27;4.85;;;15.80;99.90;;;;;;5074821;28;20169;-77
2022/10/27 08:05:50;;;;;;;7.25;4.22;;;15.90;99.90;;;;;;5074728;28;20513;-78
2022/10/27 08:08:17;;;;;;;13.65;4.68;;;15.90;99.90;;;;;;5074071;28;20082;-79
2022/10/27 08:10:44;;;;;;;10.35;4.05;;;16.00;99.90;;;;;;5073600;28;20032;-81
2022/10/27 08:13:10;;;;;;;11.48;4.18;;;16.00;99.90;;;;;;5074450;28;20109;-79
2022/10/27 08:15:37;;;;;;;9.90;4.32;;;16.10;99.90;;;;;;5074610;28;20036;-79
2022/10/27 08:18:03;;;;;;;7.60;3.30;;;16.10;99.90;;;;;;5074588;28;20024;-79
2022/10/27 08:20:31;;;;;;;9.20;4.30;;;16.20;99.90;;;;;;5074146;28;20036;-78
2022/10/27 08:23:10;;;;;;;9.23;3.67;;;16.20;99.90;;;;;;5073339;28;20107;-80
2022/10/27 08:25:35;;;;;;;15.70;4.15;;;16.30;99.90;;;;;;5074483;28;20029;-78
2022/10/27 08:28:02;;;;;;;11.82;3.85;;;16.40;99.90;;;;;;5075905;28;20029;-79
2022/10/27 08:30:30;;;;;;;18.03;7.43;;;16.40;99.90;;;;;;5073418;28;20041;-80
2022/10/27 08:32:57;;;;;;;9.85;3.90;;;16.50;99.90;;;;;;5074347;28;20028;-79
2022/10/27 08:35:24;;;;;;;9.82;3.72;;;16.60;99.90;;;;;;5075130;28;20159;-78
2022/10/27 08:38:00;;;;;;;9.40;4.50;;;16.70;99.90;;;;;;5073666;28;20044;-79
2022/10/27 08:40:36;;;;;;;6.65;3.50;;;16.70;99.90;;;;;;5074989;28;20028;-77
2022/10/27 08:43:23;;;;;;;10.90;3.80;;;16.80;99.90;;;;;;5074534;28;20028;-78
2022/10/27 08:45:57;;;;;;;10.50;4.55;;;16.90;99.90;;;;;;5073518;28;20266;-77
2022/10/27 08:48:25;;;;;;;12.15;3.70;;;16.90;99.90;;;;;;5073433;28;20480;-79
2022/10/27 08:50:51;;;;;;;7.70;3.60;;;17.00;99.90;;;;;;5076866;28;20055;-77
2022/10/27 08:53:32;;;;;;;14.88;3.72;;;17.10;99.90;;;;;;5079701;28;20452;-78
2022/10/27 08:56:06;;;;;;;8.07;3.53;;;17.20;99.90;;;;;;5079775;28;20028;-77
2022/10/27 08:58:37;;;;;;;7.65;3.70;;;17.30;99.90;;;;;;5078611;28;20021;-78
2022/10/27 09:01:08;;;;;;;10.43;3.85;;;17.30;99.90;;;;;;5078982;28;20358;-81
2022/10/27 09:04:06;;;;;;;9.45;4.03;;;17.40;99.90;;;;;;5076618;28;20181;-81
2022/10/27 09:06:43;;;;;;;7.35;3.70;;;17.40;99.90;;;;;;5073144;28;20044;-80
2022/10/27 09:09:25;;;;;;;9.65;4.72;;;17.50;99.90;;;;;;5077970;28;20039;-80
2022/10/27 09:11:53;;;;;;;12.05;3.78;;;17.50;99.90;;;;;;5078617;28;20028;-80
2022/10/27 09:14:51;;;;;;;16.30;3.78;;;17.60;99.90;;;;;;5078812;28;20036;-82
2022/10/27 09:17:19;;;;;;;;;;;17.70;99.90;;;;;;5079296;28;20044;-82
2022/10/27 09:20:05;;;;;;;7.15;3.67;;;17.80;99.90;;;;;;5079623;28;19965;-82
2022/10/27 09:22:36;;;;;;;8.07;3.75;;;18.00;99.90;;;;;;5077738;28;20048;-82
2022/10/27 09:25:05;;;;;;;11.48;3.75;;;18.10;99.90;;;;;;5080470;28;20054;-83
2022/10/27 09:27:31;;;;;;;7.97;3.17;;;18.20;99.90;;;;;;5078450;28;20416;-81
2022/10/27 09:30:01;;;;;;;9.48;3.45;;;18.30;99.90;;;;;;5079785;28;20577;-81
2022/10/27 09:32:31;;;;;;;5.63;2.70;;;18.40;99.90;;;;;;5077875;28;20486;-81
2022/10/27 09:35:03;;;;;;;8.75;3.80;;;18.70;99.90;;;;;;5076219;28;20047;-82
2022/10/27 09:37:32;;;;;;;7.07;4.32;;;19.10;99.90;;;;;;5074588;28;20071;-82
2022/10/27 09:39:58;;;;;;;12.02;4.50;;;19.70;99.90;;;;;;5074472;28;20021;-83
2022/10/27 09:42:25;;;;;;;7.70;3.25;;;20.50;99.90;;;;;;5073945;28;20043;-81
2022/10/27 09:44:57;;;;;;;9.90;2.88;;;21.40;99.90;;;;;;5074114;28;20013;-76
2022/10/27 09:47:26;;;;;;;8.07;3.53;;;22.30;99.90;;;;;;5075757;28;20123;-77
2022/10/27 09:49:55;;;;;;;4.75;2.72;;;23.00;99.10;;;;;;5073837;28;20269;-78
2022/10/27 09:52:28;;;;;;;8.05;3.28;;;23.80;99.50;;;;;;5072961;28;20043;-80
2022/10/27 09:54:55;;;;;;;7.10;2.78;;;24.60;97.70;;;;;;5072492;28;20040;-79
2022/10/27 09:57:31;;;;;;;11.90;4.57;;;24.90;98.70;;;;;;5075357;28;20032;-79
2022/10/27 10:00:04;;;;;;;5.18;2.67;;;25.40;96.00;;;;;;5076988;28;20048;-80
2022/10/27 10:02:33;;;;;;;10.35;2.70;;;25.70;94.90;;;;;;5075585;28;20069;-79
2022/10/27 10:05:00;;;;;;;7.82;3.10;;;26.20;95.20;;;;;;5073500;28;20055;-80
2022/10/27 10:07:37;;;;;;;6.90;2.93;;;26.70;94.40;;;;;;5075454;28;20410;-79
2022/10/27 10:10:25;;;;;;;8.10;2.65;;;26.90;93.70;;;;;;5074253;28;20409;-80
2022/10/27 10:13:05;;;;;;;4.47;2.10;;;26.70;92.80;;;;;;5072119;28;20145;-81
2022/10/27 10:15:44;;;;;;;5.53;2.20;;;26.40;92.60;;;;;;5078672;28;20540;-79
2022/10/27 10:18:23;;;;;;;14.10;2.90;;;26.10;92.60;;;;;;5073172;28;20438;-80
2022/10/27 10:21:00;;;;;;;6.60;2.28;;;26.70;93.50;;;;;;5074815;28;20457;-79
2022/10/27 10:23:41;;;;;;;4.20;2.20;;;26.90;92.20;;;;;;5073363;28;20040;-78
2022/10/27 10:26:16;;;;;;;5.25;1.98;;;27.50;92.20;;;;;;5071858;28;20654;-80
2022/10/27 10:28:43;;;;;;;5.50;2.20;;;27.80;92.10;;;;;;5073054;28;20045;-79
2022/10/27 10:31:12;;;;;;;4.97;2.30;;;28.00;90.70;;;;;;5073438;28;20153;-83
2022/10/27 10:33:44;;;;;;;8.57;2.13;;;28.10;90.40;;;;;;5071084;28;20036;-80
2022/10/27 10:36:27;;;;;;;7.82;2.38;;;28.20;90.40;;;;;;5071959;28;20107;-83
2022/10/27 10:38:58;;;;;;;10.57;2.95;;;28.60;90.20;;;;;;5070698;28;20032;-83
2022/10/27 10:41:26;;;;;;;7.22;2.30;;;28.40;87.60;;;;;;5071402;28;20035;-81
2022/10/27 10:44:10;;;;;;;19.52;10.52;;;28.40;89.70;;;;;;5071677;28;20104;-80
2022/10/27 10:46:40;;;;;;;36.30;23.67;;;28.70;88.20;;;;;;5070247;28;20052;-81
2022/10/27 10:49:19;;;;;;;8.60;4.45;;;29.20;88.20;;;;;;5071612;28;20044;-80
2022/10/27 10:51:53;;;;;;;7.80;2.45;;;29.30;84.50;;;;;;5071119;28;20032;-78
2022/10/27 10:54:40;;;;;;;6.88;2.90;;;29.10;87.30;;;;;;5071186;28;20123;-77
2022/10/27 10:57:37;;;;;;;6.68;2.38;;;28.90;86.00;;;;;;5071363;28;20374;-77
2022/10/27 11:00:06;;;;;;;5.57;2.25;;;28.80;86.60;;;;;;5071681;28;20044;-78
2022/10/27 11:02:33;;;;;;;2.92;1.83;;;29.00;85.40;;;;;;5071896;28;20095;-85
2022/10/27 11:05:17;;;;;;;9.55;2.60;;;29.50;88.00;;;;;;5071182;28;20032;-88
2022/10/27 11:07:46;;;;;;;4.85;2.50;;;29.30;82.90;;;;;;5072167;28;20099;-81
2022/10/27 11:10:14;;;;;;;6.80;2.20;;;29.20;85.70;;;;;;5072455;28;20068;-83
2022/10/27 11:13:03;;;;;;;5.05;2.10;;;28.60;83.10;;;;;;5072319;28;20206;-80
2022/10/27 11:15:36;;;;;;;5.20;2.40;;;28.50;84.10;;;;;;5072091;28;20086;-82
2022/10/27 11:18:09;;;;;;;9.13;2.60;;;28.40;83.50;;;;;;5071889;28;20078;-81
2022/10/27 11:20:36;;;;;;;5.43;2.30;;;28.40;83.80;;;;;;5070922;28;20032;-80
2022/10/27 11:23:25;;;;;;;5.57;2.60;;;27.90;84.00;;;;;;5071354;28;20025;-81
2022/10/27 11:25:52;;;;;;;6.13;2.35;;;27.80;84.00;;;;;;5072888;28;20037;-82
2022/10/27 11:28:30;;;;;;;3.50;2.00;;;28.00;83.90;;;;;;5072941;28;20029;-83
2022/10/27 11:31:04;;;;;;;6.03;2.70;;;28.10;84.80;;;;;;5069892;28;20066;-80
2022/10/27 11:33:41;;;;;;;15.63;8.00;;;28.10;83.50;;;;;;5070893;28;20033;-81
2022/10/27 11:36:39;;;;;;;21.77;11.85;;;27.70;84.60;;;;;;5071445;28;20074;-82
2022/10/27 11:39:14;;;;;;;5.40;2.72;;;26.80;84.30;;;;;;5070858;28;20108;-81
2022/10/27 11:41:48;;;;;;;5.68;2.38;;;26.10;86.60;;;;;;5070651;28;20020;-81
2022/10/27 11:44:20;;;;;;;11.27;3.00;;;25.80;87.20;;;;;;5070929;28;20543;-80
2022/10/27 11:47:07;;;;;;;12.80;2.88;;;25.60;88.70;;;;;;5071672;28;20064;-79
2022/10/27 11:49:43;;;;;;;5.53;2.45;;;25.40;89.30;;;;;;5070347;28;20551;-80
2022/10/27 11:52:21;;;;;;;6.03;1.85;;;25.00;89.50;;;;;;5071102;28;20033;-79
2022/10/27 11:54:47;;;;;;;4.25;2.13;;;24.90;90.00;;;;;;5070455;28;20039;-81
2022/10/27 11:57:26;;;;;;;6.30;1.70;;;24.80;90.10;;;;;;5071380;28;20029;-81
2022/10/27 11:59:58;;;;;;;2.22;1.33;;;24.60;89.90;;;;;;5071269;28;20071;-81
2022/10/27 12:02:58;;;;;;;2.78;1.63;;;24.40;90.00;;;;;;5071858;28;20033;-79
2022/10/27 12:05:39;;;;;;;2.72;1.27;;;24.30;90.10;;;;;;5065268;28;20123;-82
2022/10/27 12:08:13;;;;;;;5.07;1.50;;;24.20;90.10;;;;;;5071042;28;20029;-80
2022/10/27 12:11:29;;;;;;;6.93;1.58;;;24.20;90.20;;;;;;5070366;28;20029;-78
2022/10/27 12:14:14;;;;;;;7.43;1.50;;;24.00;90.40;;;;;;5066324;28;20049;-79
2022/10/27 12:17:21;;;;;;;7.85;1.50;;;23.90;90.40;;;;;;5070470;28;20115;-81
2022/10/27 12:19:47;;;;;;;6.72;2.33;;;23.80;90.50;;;;;;5059011;28;20028;-81
2022/10/27 12:22:34;;;;;;;6.68;2.10;;;23.80;90.50;;;;;;5069403;28;20029;-81
2022/10/27 12:25:12;;;;;;;3.50;1.42;;;23.60;90.60;;;;;;5070622;28;20035;-79
2022/10/27 12:27:45;;;;;;;2.60;1.40;;;23.50;90.60;;;;;;5070555;28;20037;-81
2022/10/27 12:30:18;;;;;;;4.65;1.38;;;23.40;91.00;;;;;;5070538;28;20048;-79
2022/10/27 12:33:02;;;;;;;4.10;1.05;;;23.40;91.40;;;;;;5069885;28;20100;-84
2022/10/27 12:35:40;;;;;;;6.32;1.27;;;23.40;91.10;;;;;;5070830;28;20102;-80
2022/10/27 12:38:15;;;;;;;5.50;1.20;;;23.20;91.10;;;;;;5070501;28;20041;-79
2022/10/27 12:41:00;;;;;;;6.82;1.02;;;23.20;91.20;;;;;;5069175;28;20441;-79
2022/10/27 12:43:54;;;;;;;4.65;1.20;;;23.10;91.00;;;;;;5073695;28;20035;-78
2022/10/27 12:46:57;;;;;;;2.47;0.88;;;23.10;91.20;;;;;;5072415;28;20055;-81
2022/10/27 12:49:36;;;;;;;8.05;1.27;;;23.10;91.10;;;;;;5073577;28;20029;-78
2022/10/27 12:52:23;;;;;;;1.70;0.95;;;23.10;91.20;;;;;;5074735;28;20033;-83
2022/10/27 12:55:16;;;;;;;3.22;1.00;;;23.00;91.60;;;;;;5074469;28;20033;-79
2022/10/27 12:57:56;;;;;;;4.88;0.82;;;22.90;91.40;;;;;;5073270;28;20040;-80
2022/10/27 13:00:24;;;;;;;4.10;1.20;;;22.80;91.30;;;;;;5074105;28;20038;-79
2022/10/27 13:03:10;;;;;;;4.15;0.88;;;22.80;91.50;;;;;;5072621;28;20051;-79
2022/10/27 13:06:15;;;;;;;10.77;1.30;;;22.70;91.50;;;;;;5077246;28;20024;-84